sensor_id;sensor_type;location;lat;lon;timestamp;P1;durP1;ratioP1;P2;durP2;ratioP2
69703;SDS011;56967;43.538;-5.646;2022-07-18T00:01:30;34.30;;;18.80;;
69703;SDS011;56967;43.538;-5.646;2022-07-18T00:03:56;26.73;;;18.45;;
69703;SDS011;56967;43.538;-5.646;2022-07-18T00:06:21;31.52;;;18.88;;
69703;SDS011;56967;43.538;-5.646;2022-07-18T00:08:47;28.33;;;17.83;;
69703;SDS011;56967;43.538;-5.646;2022-07-18T00:11:12;26.95;;;18.40;;
69703;SDS011;56967;43.538;-5.646;2022-07-18T00:13:38;29.27;;;18.60;;
69703;SDS011;56967;43.538;-5.646;2022-07-18T00:16:03;24.83;;;16.58;;
69703;SDS011;56967;43.538;-5.646;2022-07-18T00:18:28;26.20;;;16.58;;
69703;SDS011;56967;43.538;-5.646;2022-07-18T00:20:54;24.83;;;16.38;;
69703;SDS011;56967;43.538;-5.646;2022-07-18T00:23:19;27.75;;;17.48;;
69703;SDS011;56967;43.538;-5.646;2022-07-18T00:25:45;28.20;;;17.45;;
69703;SDS011;56967;43.538;-5.646;2022-07-18T00:28:10;28.05;;;17.38;;
69703;SDS011;56967;43.538;-5.646;2022-07-18T00:30:37;22.77;;;16.33;;
69703;SDS011;56967;43.538;-5.646;2022-07-18T00:33:02;22.83;;;16.08;;
69703;SDS011;56967;43.538;-5.646;2022-07-18T00:35:28;22.88;;;17.25;;
69703;SDS011;56967;43.538;-5.646;2022-07-18T00:37:53;24.63;;;16.10;;
69703;SDS011;56967;43.538;-5.646;2022-07-18T00:40:18;24.00;;;17.40;;
69703;SDS011;56967;43.538;-5.646;2022-07-18T00:42:44;22.42;;;15.80;;
69703;SDS011;56967;43.538;-5.646;2022-07-18T00:45:09;23.45;;;16.58;;
69703;SDS011;56967;43.538;-5.646;2022-07-18T00:47:35;29.00;;;17.90;;
69703;SDS011;56967;43.538;-5.646;2022-07-18T00:50:00;23.27;;;15.80;;
69703;SDS011;56967;43.538;-5.646;2022-07-18T00:52:28;26.73;;;16.88;;
69703;SDS011;56967;43.538;-5.646;2022-07-18T00:54:53;24.67;;;16.52;;
69703;SDS011;56967;43.538;-5.646;2022-07-18T00:57:19;26.60;;;16.98;;
69703;SDS011;56967;43.538;-5.646;2022-07-18T00:59:44;23.67;;;17.13;;
69703;SDS011;56967;43.538;-5.646;2022-07-18T01:02:28;23.90;;;16.65;;
69703;SDS011;56967;43.538;-5.646;2022-07-18T01:04:54;22.60;;;16.75;;
69703;SDS011;56967;43.538;-5.646;2022-07-18T01:07:19;26.73;;;17.95;;
69703;SDS011;56967;43.538;-5.646;2022-07-18T01:09:44;26.15;;;17.42;;
69703;SDS011;56967;43.538;-5.646;2022-07-18T01:12:10;26.30;;;17.45;;
69703;SDS011;56967;43.538;-5.646;2022-07-18T01:14:35;25.35;;;17.80;;
69703;SDS011;56967;43.538;-5.646;2022-07-18T01:17:01;25.10;;;15.75;;
69703;SDS011;56967;43.538;-5.646;2022-07-18T01:19:27;25.13;;;17.05;;
69703;SDS011;56967;43.538;-5.646;2022-07-18T01:21:52;21.60;;;16.33;;
69703;SDS011;56967;43.538;-5.646;2022-07-18T01:24:17;22.25;;;15.65;;
69703;SDS011;56967;43.538;-5.646;2022-07-18T01:26:43;21.42;;;16.13;;
69703;SDS011;56967;43.538;-5.646;2022-07-18T01:29:08;24.90;;;16.60;;
69703;SDS011;56967;43.538;-5.646;2022-07-18T01:31:33;27.13;;;17.80;;
69703;SDS011;56967;43.538;-5.646;2022-07-18T01:33:59;26.67;;;17.60;;
69703;SDS011;56967;43.538;-5.646;2022-07-18T01:36:25;27.73;;;18.00;;
69703;SDS011;56967;43.538;-5.646;2022-07-18T01:38:50;24.48;;;17.85;;
69703;SDS011;56967;43.538;-5.646;2022-07-18T01:41:16;27.50;;;19.00;;
69703;SDS011;56967;43.538;-5.646;2022-07-18T01:43:41;30.63;;;20.98;;
69703;SDS011;56967;43.538;-5.646;2022-07-18T01:46:08;26.75;;;18.17;;
69703;SDS011;56967;43.538;-5.646;2022-07-18T01:48:36;27.17;;;19.02;;
69703;SDS011;56967;43.538;-5.646;2022-07-18T01:51:01;25.75;;;19.23;;
69703;SDS011;56967;43.538;-5.646;2022-07-18T01:53:26;25.50;;;18.55;;
69703;SDS011;56967;43.538;-5.646;2022-07-18T01:55:52;29.08;;;19.50;;
69703;SDS011;56967;43.538;-5.646;2022-07-18T01:58:18;28.30;;;19.83;;
69703;SDS011;56967;43.538;-5.646;2022-07-18T02:00:43;26.58;;;18.83;;
69703;SDS011;56967;43.538;-5.646;2022-07-18T02:03:08;27.38;;;19.50;;
69703;SDS011;56967;43.538;-5.646;2022-07-18T02:05:34;28.92;;;19.55;;
69703;SDS011;56967;43.538;-5.646;2022-07-18T02:07:59;30.48;;;18.48;;
69703;SDS011;56967;43.538;-5.646;2022-07-18T02:10:25;27.10;;;19.85;;
69703;SDS011;56967;43.538;-5.646;2022-07-18T02:12:50;27.98;;;19.20;;
69703;SDS011;56967;43.538;-5.646;2022-07-18T02:15:15;29.95;;;20.17;;
69703;SDS011;56967;43.538;-5.646;2022-07-18T02:17:41;27.50;;;19.23;;
69703;SDS011;56967;43.538;-5.646;2022-07-18T02:20:08;26.02;;;18.20;;
69703;SDS011;56967;43.538;-5.646;2022-07-18T02:22:33;27.48;;;17.50;;
69703;SDS011;56967;43.538;-5.646;2022-07-18T02:24:59;25.00;;;17.45;;
69703;SDS011;56967;43.538;-5.646;2022-07-18T02:27:24;29.50;;;18.10;;
69703;SDS011;56967;43.538;-5.646;2022-07-18T02:29:49;25.23;;;16.88;;
69703;SDS011;56967;43.538;-5.646;2022-07-18T02:32:15;23.05;;;15.50;;
69703;SDS011;56967;43.538;-5.646;2022-07-18T02:34:40;24.98;;;17.83;;
69703;SDS011;56967;43.538;-5.646;2022-07-18T02:37:06;25.60;;;17.20;;
69703;SDS011;56967;43.538;-5.646;2022-07-18T02:39:32;28.73;;;16.83;;
69703;SDS011;56967;43.538;-5.646;2022-07-18T02:41:57;25.52;;;17.58;;
69703;SDS011;56967;43.538;-5.646;2022-07-18T02:44:22;23.98;;;17.42;;
69703;SDS011;56967;43.538;-5.646;2022-07-18T02:46:48;26.63;;;16.95;;
69703;SDS011;56967;43.538;-5.646;2022-07-18T02:49:14;25.77;;;18.05;;
69703;SDS011;56967;43.538;-5.646;2022-07-18T02:51:52;20.42;;;16.23;;
69703;SDS011;56967;43.538;-5.646;2022-07-18T02:54:17;23.48;;;15.90;;
69703;SDS011;56967;43.538;-5.646;2022-07-18T02:56:43;24.83;;;17.03;;
69703;SDS011;56967;43.538;-5.646;2022-07-18T02:59:08;22.73;;;16.27;;
69703;SDS011;56967;43.538;-5.646;2022-07-18T03:01:33;21.95;;;15.95;;
69703;SDS011;56967;43.538;-5.646;2022-07-18T03:03:59;20.95;;;15.75;;
69703;SDS011;56967;43.538;-5.646;2022-07-18T03:06:25;24.65;;;17.30;;
69703;SDS011;56967;43.538;-5.646;2022-07-18T03:08:51;23.38;;;16.15;;
69703;SDS011;56967;43.538;-5.646;2022-07-18T03:11:16;21.67;;;16.42;;
69703;SDS011;56967;43.538;-5.646;2022-07-18T03:13:41;25.43;;;17.53;;
69703;SDS011;56967;43.538;-5.646;2022-07-18T03:16:07;20.33;;;15.27;;
69703;SDS011;56967;43.538;-5.646;2022-07-18T03:18:32;19.15;;;15.25;;
69703;SDS011;56967;43.538;-5.646;2022-07-18T03:20:57;21.30;;;15.70;;
69703;SDS011;56967;43.538;-5.646;2022-07-18T03:23:23;24.77;;;15.38;;
69703;SDS011;56967;43.538;-5.646;2022-07-18T03:25:48;21.80;;;15.85;;
69703;SDS011;56967;43.538;-5.646;2022-07-18T03:28:13;24.80;;;16.10;;
69703;SDS011;56967;43.538;-5.646;2022-07-18T03:30:39;23.40;;;15.85;;
69703;SDS011;56967;43.538;-5.646;2022-07-18T03:33:04;22.70;;;16.42;;
69703;SDS011;56967;43.538;-5.646;2022-07-18T03:35:29;24.02;;;15.13;;
69703;SDS011;56967;43.538;-5.646;2022-07-18T03:37:55;23.80;;;17.08;;
69703;SDS011;56967;43.538;-5.646;2022-07-18T03:40:20;23.33;;;15.95;;
69703;SDS011;56967;43.538;-5.646;2022-07-18T03:42:45;24.52;;;17.63;;
69703;SDS011;56967;43.538;-5.646;2022-07-18T03:45:11;24.98;;;16.58;;
69703;SDS011;56967;43.538;-5.646;2022-07-18T03:47:36;23.35;;;16.38;;
69703;SDS011;56967;43.538;-5.646;2022-07-18T03:50:02;26.15;;;17.20;;
69703;SDS011;56967;43.538;-5.646;2022-07-18T03:52:27;27.05;;;17.55;;
69703;SDS011;56967;43.538;-5.646;2022-07-18T03:54:52;22.55;;;16.58;;
69703;SDS011;56967;43.538;-5.646;2022-07-18T03:57:18;20.45;;;15.63;;
69703;SDS011;56967;43.538;-5.646;2022-07-18T03:59:43;23.13;;;16.63;;
69703;SDS011;56967;43.538;-5.646;2022-07-18T04:02:08;23.42;;;16.88;;
69703;SDS011;56967;43.538;-5.646;2022-07-18T04:04:34;21.63;;;16.52;;
69703;SDS011;56967;43.538;-5.646;2022-07-18T04:06:59;19.52;;;16.15;;
69703;SDS011;56967;43.538;-5.646;2022-07-18T04:09:27;22.20;;;16.50;;
69703;SDS011;56967;43.538;-5.646;2022-07-18T04:11:53;25.77;;;17.70;;
69703;SDS011;56967;43.538;-5.646;2022-07-18T04:14:18;23.60;;;16.83;;
69703;SDS011;56967;43.538;-5.646;2022-07-18T04:16:43;24.85;;;17.40;;
69703;SDS011;56967;43.538;-5.646;2022-07-18T04:19:09;25.85;;;17.73;;
69703;SDS011;56967;43.538;-5.646;2022-07-18T04:21:34;22.58;;;17.55;;
69703;SDS011;56967;43.538;-5.646;2022-07-18T04:24:00;22.20;;;16.88;;
69703;SDS011;56967;43.538;-5.646;2022-07-18T04:26:25;22.15;;;17.40;;
69703;SDS011;56967;43.538;-5.646;2022-07-18T04:28:50;22.48;;;16.77;;
69703;SDS011;56967;43.538;-5.646;2022-07-18T04:31:16;25.77;;;16.85;;
69703;SDS011;56967;43.538;-5.646;2022-07-18T04:33:41;22.42;;;17.40;;
69703;SDS011;56967;43.538;-5.646;2022-07-18T04:36:06;27.13;;;18.80;;
69703;SDS011;56967;43.538;-5.646;2022-07-18T04:38:32;21.83;;;18.33;;
69703;SDS011;56967;43.538;-5.646;2022-07-18T04:41:01;24.63;;;16.42;;
69703;SDS011;56967;43.538;-5.646;2022-07-18T04:43:27;25.90;;;17.88;;
69703;SDS011;56967;43.538;-5.646;2022-07-18T04:45:52;25.35;;;17.10;;
69703;SDS011;56967;43.538;-5.646;2022-07-18T04:48:17;24.75;;;18.13;;
69703;SDS011;56967;43.538;-5.646;2022-07-18T04:50:43;26.08;;;18.38;;
69703;SDS011;56967;43.538;-5.646;2022-07-18T04:53:08;25.60;;;17.17;;
69703;SDS011;56967;43.538;-5.646;2022-07-18T04:55:33;27.15;;;18.48;;
69703;SDS011;56967;43.538;-5.646;2022-07-18T04:57:59;24.90;;;19.33;;
69703;SDS011;56967;43.538;-5.646;2022-07-18T05:00:25;22.15;;;17.42;;
69703;SDS011;56967;43.538;-5.646;2022-07-18T05:02:50;22.83;;;18.10;;
69703;SDS011;56967;43.538;-5.646;2022-07-18T05:05:16;24.50;;;17.83;;
69703;SDS011;56967;43.538;-5.646;2022-07-18T05:07:42;23.52;;;17.35;;
69703;SDS011;56967;43.538;-5.646;2022-07-18T05:10:08;25.45;;;17.60;;
69703;SDS011;56967;43.538;-5.646;2022-07-18T05:12:34;22.52;;;17.58;;
69703;SDS011;56967;43.538;-5.646;2022-07-18T05:15:00;22.95;;;17.10;;
69703;SDS011;56967;43.538;-5.646;2022-07-18T05:17:25;27.58;;;18.10;;
69703;SDS011;56967;43.538;-5.646;2022-07-18T05:19:51;24.17;;;17.60;;
69703;SDS011;56967;43.538;-5.646;2022-07-18T05:22:16;23.10;;;17.55;;
69703;SDS011;56967;43.538;-5.646;2022-07-18T05:24:42;19.40;;;16.73;;
69703;SDS011;56967;43.538;-5.646;2022-07-18T05:27:07;22.23;;;17.90;;
69703;SDS011;56967;43.538;-5.646;2022-07-18T05:29:32;21.75;;;16.33;;
69703;SDS011;56967;43.538;-5.646;2022-07-18T05:31:58;21.63;;;17.05;;
69703;SDS011;56967;43.538;-5.646;2022-07-18T05:34:23;23.40;;;17.30;;
69703;SDS011;56967;43.538;-5.646;2022-07-18T05:36:48;20.10;;;15.55;;
69703;SDS011;56967;43.538;-5.646;2022-07-18T05:39:14;23.58;;;17.08;;
69703;SDS011;56967;43.538;-5.646;2022-07-18T05:41:39;23.57;;;17.00;;
69703;SDS011;56967;43.538;-5.646;2022-07-18T05:44:04;18.98;;;16.10;;
69703;SDS011;56967;43.538;-5.646;2022-07-18T05:46:30;23.67;;;15.43;;
69703;SDS011;56967;43.538;-5.646;2022-07-18T05:48:55;20.60;;;14.88;;
69703;SDS011;56967;43.538;-5.646;2022-07-18T05:51:20;19.17;;;15.20;;
69703;SDS011;56967;43.538;-5.646;2022-07-18T05:53:46;23.92;;;15.10;;
69703;SDS011;56967;43.538;-5.646;2022-07-18T05:56:12;20.58;;;15.23;;
69703;SDS011;56967;43.538;-5.646;2022-07-18T05:58:37;18.65;;;14.77;;
69703;SDS011;56967;43.538;-5.646;2022-07-18T06:01:02;22.08;;;14.30;;
69703;SDS011;56967;43.538;-5.646;2022-07-18T06:03:28;22.00;;;15.13;;
69703;SDS011;56967;43.538;-5.646;2022-07-18T06:05:53;24.03;;;15.07;;
69703;SDS011;56967;43.538;-5.646;2022-07-18T06:08:18;19.27;;;13.57;;
69703;SDS011;56967;43.538;-5.646;2022-07-18T06:10:44;31.63;;;14.73;;
69703;SDS011;56967;43.538;-5.646;2022-07-18T06:13:09;20.00;;;12.80;;
69703;SDS011;56967;43.538;-5.646;2022-07-18T06:15:35;20.40;;;10.90;;
69703;SDS011;56967;43.538;-5.646;2022-07-18T06:18:00;20.07;;;10.10;;
69703;SDS011;56967;43.538;-5.646;2022-07-18T06:20:25;18.70;;;10.20;;
69703;SDS011;56967;43.538;-5.646;2022-07-18T06:22:51;20.88;;;9.82;;
69703;SDS011;56967;43.538;-5.646;2022-07-18T06:25:16;13.83;;;8.30;;
69703;SDS011;56967;43.538;-5.646;2022-07-18T06:27:42;13.63;;;8.65;;
69703;SDS011;56967;43.538;-5.646;2022-07-18T06:30:07;14.45;;;8.68;;
69703;SDS011;56967;43.538;-5.646;2022-07-18T06:32:34;15.75;;;8.48;;
69703;SDS011;56967;43.538;-5.646;2022-07-18T06:35:00;11.88;;;8.10;;
69703;SDS011;56967;43.538;-5.646;2022-07-18T06:37:25;13.77;;;8.63;;
69703;SDS011;56967;43.538;-5.646;2022-07-18T06:39:50;11.80;;;8.17;;
69703;SDS011;56967;43.538;-5.646;2022-07-18T06:42:16;13.70;;;7.90;;
69703;SDS011;56967;43.538;-5.646;2022-07-18T06:44:41;11.93;;;8.10;;
69703;SDS011;56967;43.538;-5.646;2022-07-18T06:47:06;13.23;;;7.70;;
69703;SDS011;56967;43.538;-5.646;2022-07-18T06:49:32;14.80;;;7.90;;
69703;SDS011;56967;43.538;-5.646;2022-07-18T06:51:57;14.00;;;7.70;;
69703;SDS011;56967;43.538;-5.646;2022-07-18T06:54:23;16.60;;;8.63;;
69703;SDS011;56967;43.538;-5.646;2022-07-18T06:56:53;16.55;;;8.65;;
69703;SDS011;56967;43.538;-5.646;2022-07-18T06:59:18;18.00;;;8.48;;
69703;SDS011;56967;43.538;-5.646;2022-07-18T07:01:44;22.67;;;9.13;;
69703;SDS011;56967;43.538;-5.646;2022-07-18T07:04:09;18.60;;;9.10;;
69703;SDS011;56967;43.538;-5.646;2022-07-18T07:06:34;12.75;;;8.55;;
69703;SDS011;56967;43.538;-5.646;2022-07-18T07:09:02;12.48;;;8.20;;
69703;SDS011;56967;43.538;-5.646;2022-07-18T07:11:27;11.23;;;8.63;;
69703;SDS011;56967;43.538;-5.646;2022-07-18T07:13:53;11.03;;;9.30;;
69703;SDS011;56967;43.538;-5.646;2022-07-18T07:16:18;11.15;;;8.75;;
69703;SDS011;56967;43.538;-5.646;2022-07-18T07:18:43;13.83;;;9.30;;
69703;SDS011;56967;43.538;-5.646;2022-07-18T07:21:09;12.23;;;9.70;;
69703;SDS011;56967;43.538;-5.646;2022-07-18T07:23:34;13.93;;;9.40;;
69703;SDS011;56967;43.538;-5.646;2022-07-18T07:26:00;16.88;;;10.45;;
69703;SDS011;56967;43.538;-5.646;2022-07-18T07:28:25;13.70;;;9.32;;
69703;SDS011;56967;43.538;-5.646;2022-07-18T07:30:50;12.85;;;10.10;;
69703;SDS011;56967;43.538;-5.646;2022-07-18T07:33:16;11.83;;;8.80;;
69703;SDS011;56967;43.538;-5.646;2022-07-18T07:35:41;11.35;;;9.77;;
69703;SDS011;56967;43.538;-5.646;2022-07-18T07:38:07;13.48;;;10.05;;
69703;SDS011;56967;43.538;-5.646;2022-07-18T07:40:32;13.93;;;10.63;;
69703;SDS011;56967;43.538;-5.646;2022-07-18T07:43:05;13.70;;;11.05;;
69703;SDS011;56967;43.538;-5.646;2022-07-18T07:45:30;14.30;;;10.48;;
69703;SDS011;56967;43.538;-5.646;2022-07-18T07:47:56;15.18;;;13.07;;
69703;SDS011;56967;43.538;-5.646;2022-07-18T07:50:21;16.05;;;12.50;;
69703;SDS011;56967;43.538;-5.646;2022-07-18T07:52:47;15.87;;;12.37;;
69703;SDS011;56967;43.538;-5.646;2022-07-18T07:55:12;13.30;;;12.00;;
69703;SDS011;56967;43.538;-5.646;2022-07-18T07:57:37;16.50;;;14.30;;
69703;SDS011;56967;43.538;-5.646;2022-07-18T08:00:04;18.70;;;15.00;;
69703;SDS011;56967;43.538;-5.646;2022-07-18T08:02:31;17.65;;;14.48;;
69703;SDS011;56967;43.538;-5.646;2022-07-18T08:04:56;17.83;;;15.77;;
69703;SDS011;56967;43.538;-5.646;2022-07-18T08:07:21;18.60;;;15.50;;
69703;SDS011;56967;43.538;-5.646;2022-07-18T08:09:46;17.87;;;15.97;;
69703;SDS011;56967;43.538;-5.646;2022-07-18T08:12:12;19.90;;;17.90;;
69703;SDS011;56967;43.538;-5.646;2022-07-18T08:14:37;21.70;;;19.27;;
69703;SDS011;56967;43.538;-5.646;2022-07-18T08:17:05;22.00;;;20.10;;
69703;SDS011;56967;43.538;-5.646;2022-07-18T08:19:30;21.45;;;19.55;;
69703;SDS011;56967;43.538;-5.646;2022-07-18T08:21:55;21.40;;;19.23;;
69703;SDS011;56967;43.538;-5.646;2022-07-18T08:24:21;20.70;;;18.90;;
69703;SDS011;56967;43.538;-5.646;2022-07-18T08:26:46;24.17;;;22.07;;
69703;SDS011;56967;43.538;-5.646;2022-07-18T08:29:11;23.17;;;21.17;;
69703;SDS011;56967;43.538;-5.646;2022-07-18T08:31:37;25.10;;;22.67;;
69703;SDS011;56967;43.538;-5.646;2022-07-18T08:34:02;23.77;;;21.60;;
69703;SDS011;56967;43.538;-5.646;2022-07-18T08:36:27;22.97;;;20.80;;
69703;SDS011;56967;43.538;-5.646;2022-07-18T08:38:53;22.90;;;20.90;;
69703;SDS011;56967;43.538;-5.646;2022-07-18T08:41:18;31.73;;;28.90;;
69703;SDS011;56967;43.538;-5.646;2022-07-18T08:43:47;24.88;;;22.80;;
69703;SDS011;56967;43.538;-5.646;2022-07-18T08:46:13;27.75;;;24.80;;
69703;SDS011;56967;43.538;-5.646;2022-07-18T08:48:39;27.00;;;24.33;;
69703;SDS011;56967;43.538;-5.646;2022-07-18T08:51:05;29.83;;;26.85;;
69703;SDS011;56967;43.538;-5.646;2022-07-18T08:53:30;36.00;;;32.28;;
69703;SDS011;56967;43.538;-5.646;2022-07-18T08:55:57;32.70;;;29.60;;
69703;SDS011;56967;43.538;-5.646;2022-07-18T08:58:22;39.77;;;35.57;;
69703;SDS011;56967;43.538;-5.646;2022-07-18T09:00:48;40.00;;;36.25;;
69703;SDS011;56967;43.538;-5.646;2022-07-18T09:03:13;37.37;;;34.27;;
69703;SDS011;56967;43.538;-5.646;2022-07-18T09:05:39;42.85;;;39.35;;
69703;SDS011;56967;43.538;-5.646;2022-07-18T09:08:08;44.47;;;40.08;;
69703;SDS011;56967;43.538;-5.646;2022-07-18T09:10:40;50.05;;;45.58;;
69703;SDS011;56967;43.538;-5.646;2022-07-18T09:13:05;45.85;;;41.92;;
69703;SDS011;56967;43.538;-5.646;2022-07-18T09:15:31;32.40;;;29.17;;
69703;SDS011;56967;43.538;-5.646;2022-07-18T09:17:56;22.70;;;20.37;;
69703;SDS011;56967;43.538;-5.646;2022-07-18T09:20:22;26.20;;;21.27;;
69703;SDS011;56967;43.538;-5.646;2022-07-18T09:22:48;24.13;;;21.73;;
69703;SDS011;56967;43.538;-5.646;2022-07-18T09:27:40;18.77;;;16.95;;
69703;SDS011;56967;43.538;-5.646;2022-07-18T09:30:10;28.00;;;25.65;;
69703;SDS011;56967;43.538;-5.646;2022-07-18T09:32:36;23.52;;;21.15;;
69703;SDS011;56967;43.538;-5.646;2022-07-18T09:35:08;21.33;;;19.38;;
69703;SDS011;56967;43.538;-5.646;2022-07-18T09:37:34;16.33;;;14.65;;
69703;SDS011;56967;43.538;-5.646;2022-07-18T09:40:19;20.65;;;17.85;;
69703;SDS011;56967;43.538;-5.646;2022-07-18T09:42:49;27.30;;;24.55;;
69703;SDS011;56967;43.538;-5.646;2022-07-18T09:45:15;21.83;;;19.73;;
69703;SDS011;56967;43.538;-5.646;2022-07-18T09:47:50;20.57;;;18.57;;
69703;SDS011;56967;43.538;-5.646;2022-07-18T09:50:23;19.30;;;17.42;;
69703;SDS011;56967;43.538;-5.646;2022-07-18T09:57:56;17.20;;;13.53;;
69703;SDS011;56967;43.538;-5.646;2022-07-18T10:00:22;18.80;;;12.00;;
69703;SDS011;56967;43.538;-5.646;2022-07-18T10:02:47;15.68;;;12.00;;
69703;SDS011;56967;43.538;-5.646;2022-07-18T10:05:13;17.15;;;12.27;;
69703;SDS011;56967;43.538;-5.646;2022-07-18T10:07:38;13.70;;;11.90;;
69703;SDS011;56967;43.538;-5.646;2022-07-18T10:10:04;16.58;;;13.20;;
69703;SDS011;56967;43.538;-5.646;2022-07-18T10:12:30;19.73;;;12.43;;
69703;SDS011;56967;43.538;-5.646;2022-07-18T10:14:56;41.08;;;14.45;;
69703;SDS011;56967;43.538;-5.646;2022-07-18T10:17:21;22.58;;;13.38;;
69703;SDS011;56967;43.538;-5.646;2022-07-18T10:19:48;21.55;;;12.52;;
69703;SDS011;56967;43.538;-5.646;2022-07-18T10:22:13;18.88;;;12.80;;
69703;SDS011;56967;43.538;-5.646;2022-07-18T10:24:39;17.02;;;12.52;;
69703;SDS011;56967;43.538;-5.646;2022-07-18T10:27:12;16.88;;;12.48;;
69703;SDS011;56967;43.538;-5.646;2022-07-18T10:29:38;24.30;;;12.55;;
69703;SDS011;56967;43.538;-5.646;2022-07-18T10:32:04;19.20;;;12.47;;
69703;SDS011;56967;43.538;-5.646;2022-07-18T10:34:34;18.85;;;12.30;;
69703;SDS011;56967;43.538;-5.646;2022-07-18T10:39:36;22.63;;;12.80;;
69703;SDS011;56967;43.538;-5.646;2022-07-18T11:00:42;26.27;;;12.10;;
69703;SDS011;56967;43.538;-5.646;2022-07-18T11:03:05;15.60;;;10.70;;
69703;SDS011;56967;43.538;-5.646;2022-07-18T11:15:59;21.75;;;10.80;;
69703;SDS011;56967;43.538;-5.646;2022-07-18T11:18:27;19.33;;;12.50;;
69703;SDS011;56967;43.538;-5.646;2022-07-18T11:20:52;18.20;;;11.82;;
69703;SDS011;56967;43.538;-5.646;2022-07-18T11:23:22;16.05;;;12.73;;
69703;SDS011;56967;43.538;-5.646;2022-07-18T11:25:49;17.20;;;12.40;;
69703;SDS011;56967;43.538;-5.646;2022-07-18T11:28:14;18.52;;;12.50;;
69703;SDS011;56967;43.538;-5.646;2022-07-18T11:30:40;21.52;;;11.73;;
69703;SDS011;56967;43.538;-5.646;2022-07-18T11:33:06;19.08;;;11.60;;
69703;SDS011;56967;43.538;-5.646;2022-07-18T11:35:44;13.85;;;11.55;;
69703;SDS011;56967;43.538;-5.646;2022-07-18T11:38:09;14.63;;;11.03;;
69703;SDS011;56967;43.538;-5.646;2022-07-18T11:40:45;12.73;;;11.20;;
69703;SDS011;56967;43.538;-5.646;2022-07-18T11:43:10;13.60;;;10.70;;
69703;SDS011;56967;43.538;-5.646;2022-07-18T11:45:36;15.57;;;11.07;;
69703;SDS011;56967;43.538;-5.646;2022-07-18T11:48:01;16.83;;;11.43;;
69703;SDS011;56967;43.538;-5.646;2022-07-18T11:50:33;15.32;;;12.13;;
69703;SDS011;56967;43.538;-5.646;2022-07-18T11:52:58;16.13;;;10.90;;
69703;SDS011;56967;43.538;-5.646;2022-07-18T11:55:34;18.77;;;10.52;;
69703;SDS011;56967;43.538;-5.646;2022-07-18T11:58:12;13.32;;;11.02;;
69703;SDS011;56967;43.538;-5.646;2022-07-18T12:00:38;16.75;;;9.82;;
69703;SDS011;56967;43.538;-5.646;2022-07-18T12:03:08;12.82;;;10.18;;
69703;SDS011;56967;43.538;-5.646;2022-07-18T12:05:38;14.82;;;10.32;;
69703;SDS011;56967;43.538;-5.646;2022-07-18T12:13:45;24.77;;;9.77;;
69703;SDS011;56967;43.538;-5.646;2022-07-18T12:18:49;31.88;;;9.63;;
69703;SDS011;56967;43.538;-5.646;2022-07-18T12:21:14;15.10;;;7.40;;
69703;SDS011;56967;43.538;-5.646;2022-07-18T12:23:39;14.83;;;7.17;;
69703;SDS011;56967;43.538;-5.646;2022-07-18T12:26:05;11.53;;;6.93;;
69703;SDS011;56967;43.538;-5.646;2022-07-18T12:28:30;15.55;;;7.72;;
69703;SDS011;56967;43.538;-5.646;2022-07-18T12:30:56;11.75;;;6.35;;
69703;SDS011;56967;43.538;-5.646;2022-07-18T12:33:21;12.48;;;6.90;;
69703;SDS011;56967;43.538;-5.646;2022-07-18T12:35:54;14.02;;;6.30;;
69703;SDS011;56967;43.538;-5.646;2022-07-18T12:38:19;25.88;;;7.70;;
69703;SDS011;56967;43.538;-5.646;2022-07-18T12:40:49;15.85;;;6.45;;
69703;SDS011;56967;43.538;-5.646;2022-07-18T12:45:49;20.58;;;6.38;;
69703;SDS011;56967;43.538;-5.646;2022-07-18T12:48:14;10.70;;;5.50;;
69703;SDS011;56967;43.538;-5.646;2022-07-18T12:50:40;9.70;;;6.70;;
69703;SDS011;56967;43.538;-5.646;2022-07-18T12:53:06;11.95;;;6.25;;
69703;SDS011;56967;43.538;-5.646;2022-07-18T12:55:32;16.33;;;6.30;;
69703;SDS011;56967;43.538;-5.646;2022-07-18T12:57:57;13.10;;;5.65;;
69703;SDS011;56967;43.538;-5.646;2022-07-18T13:00:23;14.15;;;5.80;;
69703;SDS011;56967;43.538;-5.646;2022-07-18T13:02:48;10.95;;;6.10;;
69703;SDS011;56967;43.538;-5.646;2022-07-18T13:05:13;13.27;;;6.40;;
69703;SDS011;56967;43.538;-5.646;2022-07-18T13:07:39;8.37;;;5.07;;
69703;SDS011;56967;43.538;-5.646;2022-07-18T13:10:04;8.25;;;5.00;;
69703;SDS011;56967;43.538;-5.646;2022-07-18T13:12:30;9.73;;;5.30;;
69703;SDS011;56967;43.538;-5.646;2022-07-18T13:14:55;35.13;;;6.88;;
69703;SDS011;56967;43.538;-5.646;2022-07-18T13:17:21;28.58;;;6.25;;
69703;SDS011;56967;43.538;-5.646;2022-07-18T13:19:46;7.38;;;5.20;;
69703;SDS011;56967;43.538;-5.646;2022-07-18T13:22:13;19.83;;;5.85;;
69703;SDS011;56967;43.538;-5.646;2022-07-18T13:24:38;10.70;;;5.70;;
69703;SDS011;56967;43.538;-5.646;2022-07-18T13:27:04;10.85;;;5.85;;
69703;SDS011;56967;43.538;-5.646;2022-07-18T13:29:29;21.15;;;7.22;;
69703;SDS011;56967;43.538;-5.646;2022-07-18T13:31:55;19.85;;;6.85;;
69703;SDS011;56967;43.538;-5.646;2022-07-18T13:34:21;12.50;;;6.60;;
69703;SDS011;56967;43.538;-5.646;2022-07-18T13:36:47;12.20;;;6.07;;
69703;SDS011;56967;43.538;-5.646;2022-07-18T13:39:13;14.65;;;6.50;;
69703;SDS011;56967;43.538;-5.646;2022-07-18T13:41:38;17.33;;;6.43;;
69703;SDS011;56967;43.538;-5.646;2022-07-18T13:44:03;20.47;;;6.67;;
69703;SDS011;56967;43.538;-5.646;2022-07-18T13:46:29;16.27;;;7.60;;
69703;SDS011;56967;43.538;-5.646;2022-07-18T13:48:54;18.50;;;7.67;;
69703;SDS011;56967;43.538;-5.646;2022-07-18T13:51:22;36.70;;;8.88;;
69703;SDS011;56967;43.538;-5.646;2022-07-18T13:53:47;17.87;;;7.90;;
69703;SDS011;56967;43.538;-5.646;2022-07-18T13:56:12;22.50;;;8.63;;
69703;SDS011;56967;43.538;-5.646;2022-07-18T13:58:38;15.07;;;7.63;;
69703;SDS011;56967;43.538;-5.646;2022-07-18T14:01:03;15.77;;;7.65;;
69703;SDS011;56967;43.538;-5.646;2022-07-18T14:03:29;16.60;;;7.72;;
69703;SDS011;56967;43.538;-5.646;2022-07-18T14:05:54;16.13;;;8.20;;
69703;SDS011;56967;43.538;-5.646;2022-07-18T14:08:19;20.13;;;8.73;;
69703;SDS011;56967;43.538;-5.646;2022-07-18T14:10:45;15.10;;;7.88;;
69703;SDS011;56967;43.538;-5.646;2022-07-18T14:13:10;16.90;;;7.82;;
69703;SDS011;56967;43.538;-5.646;2022-07-18T14:15:35;17.90;;;7.85;;
69703;SDS011;56967;43.538;-5.646;2022-07-18T14:18:01;13.40;;;7.82;;
69703;SDS011;56967;43.538;-5.646;2022-07-18T14:20:28;17.63;;;7.78;;
69703;SDS011;56967;43.538;-5.646;2022-07-18T14:22:53;16.23;;;7.90;;
69703;SDS011;56967;43.538;-5.646;2022-07-18T14:25:19;14.02;;;8.20;;
69703;SDS011;56967;43.538;-5.646;2022-07-18T14:27:44;16.80;;;7.90;;
69703;SDS011;56967;43.538;-5.646;2022-07-18T14:30:11;14.32;;;7.03;;
69703;SDS011;56967;43.538;-5.646;2022-07-18T14:32:36;14.63;;;8.10;;
69703;SDS011;56967;43.538;-5.646;2022-07-18T14:35:02;20.63;;;8.20;;
69703;SDS011;56967;43.538;-5.646;2022-07-18T14:37:28;16.17;;;7.25;;
69703;SDS011;56967;43.538;-5.646;2022-07-18T14:39:53;16.07;;;8.03;;
69703;SDS011;56967;43.538;-5.646;2022-07-18T14:42:18;17.45;;;7.97;;
69703;SDS011;56967;43.538;-5.646;2022-07-18T14:44:44;18.37;;;8.00;;
69703;SDS011;56967;43.538;-5.646;2022-07-18T14:47:09;19.53;;;7.67;;
69703;SDS011;56967;43.538;-5.646;2022-07-18T14:49:34;21.88;;;7.43;;
69703;SDS011;56967;43.538;-5.646;2022-07-18T14:52:00;20.75;;;7.05;;
69703;SDS011;56967;43.538;-5.646;2022-07-18T14:54:26;15.80;;;6.80;;
69703;SDS011;56967;43.538;-5.646;2022-07-18T14:56:51;12.85;;;5.63;;